Spaceon02064 — ASD — position and weather

sailwx.info

Track history (hours):
 
Tides and Currents Weather Stations Pressure Air Temp Water Temp Dewpoint Dewpoint Depression Visibility Wind Speed Wind Dir Waves Ship Positions

Spaceon02064

Last reported at 2017-Feb-27 20:32 UTC. Time now 2017-Feb-28 17:16 UTC.
Position N 31°03' E 122°03'.

Length 6 m.

Type: Ship. MMSI: 200902064.

Date/timePositionNaut miles runAvg speedWind from/ knotsBaromVisibWave heightAir tempDewpointWater temp
2017-Feb-27 20:32N 31°03' E 122°03'9 8.8
2017-Feb-27 19:32N 31°08' E 121°54'7 7.1
2017-Feb-27 18:33N 31°13' E 121°49'5 5.4
2017-Feb-27 17:33N 31°17' E 121°44'4 4.3
2017-Feb-27 16:34N 31°20' E 121°41'3 3.2
2017-Feb-27 15:33N 31°22' E 121°38'5 4.9
2017-Feb-27 14:33N 31°24' E 121°32'3 2.9
2017-Feb-27 13:28N 31°20' E 121°32'0 0.0
2017-Feb-27 10:07N 31°20' E 121°32'1 0.8
2017-Feb-27 08:33N 31°19' E 121°33'0 0.0
2017-Feb-27 07:33N 31°19' E 121°33'0 0.0
2017-Feb-27 04:30N 31°19' E 121°33'6 0.2
2017-Feb-25 17:07N 31°15' E 121°29'  
2017-Feb-23 12:05N 31°30' E 121°23'510.0
2017-Feb-23 11:33N 31°33' E 121°19'1 0.0
2017-Feb-22 14:33N 31°33' E 121°20'85029.3
2017-Feb-21 09:32N 21°19' E 110°25'85563.7
2017-Feb-20 20:07N 31°07' E 121°57'3 6.1
2017-Feb-20 19:33N 31°08' E 121°53'7 7.2
2017-Feb-20 18:33N 31°14' E 121°47'8 7.8
2017-Feb-20 17:33N 31°19' E 121°41'8 7.7
2017-Feb-20 16:33N 31°23' E 121°34'3 2.9
2017-Feb-20 15:33N 31°21' E 121°32'4 3.2
2017-Feb-20 14:08N 31°16' E 121°34'0 0.0
2017-Feb-20 13:32N 31°16' E 121°34'0 0.0
2017-Feb-20 12:22N 31°16' E 121°34'0 0.0
2017-Feb-20 11:28N 31°16' E 121°34'0 0.0
2017-Feb-20 10:28N 31°16' E 121°34'0 0.0
2017-Feb-20 09:17N 31°16' E 121°34'0 0.0
2017-Feb-20 08:28N 31°16' E 121°34'0 0.0
2017-Feb-20 07:31N 31°16' E 121°34'0 0.0
2017-Feb-20 06:28N 31°16' E 121°34'0 0.0
2017-Feb-20 05:19N 31°16' E 121°34'3 3.8
2017-Feb-20 04:33N 31°15' E 121°31'4 4.1
2017-Feb-20 03:33N 31°11' E 121°28'5 4.4
2017-Feb-20 02:30N 31°07' E 121°28'4 0.9
2017-Feb-19 22:05N 31°03' E 121°29'0 0.0
2017-Feb-19 21:29N 31°03' E 121°29'0 0.0
2017-Feb-19 20:29N 31°03' E 121°29'0 0.0
2017-Feb-19 16:19N 31°03' E 121°29'2 1.0
2017-Feb-19 14:27N 31°05' E 121°28'7 6.7
2017-Feb-19 13:27N 31°11' E 121°28'5 5.3
2017-Feb-19 12:33N 31°15' E 121°31'6 5.7
2017-Feb-19 11:33N 31°21' E 121°32'4 3.7
2017-Feb-19 10:33N 31°23' E 121°35'9 9.4
2017-Feb-19 09:33N 31°18' E 121°44'1010.4
2017-Feb-19 08:33N 31°10' E 121°52'8543190.0
2017-Feb-19 08:17N 21°19' E 110°25'8561168.3
2017-Feb-19 07:33N 31°04' E 122°02'  
Track history (hours):
 
Tides and Currents Weather Stations Pressure Air Temp Water Temp Dewpoint Dewpoint Depression Visibility Wind Speed Wind Dir Waves Ship Positions

Spaceon02064

Last reported at 2017-Feb-27 20:32 UTC. Time now 2017-Feb-28 17:16 UTC.
Position N 31°03' E 122°03'.

Length 6 m.

Type: Ship. MMSI: 200902064.

Date/timePositionNaut miles runAvg speedWind from/ knotsBaromVisibWave heightAir tempDewpointWater temp
2017-Feb-27 20:32N 31°03' E 122°03'9 8.8
2017-Feb-27 19:32N 31°08' E 121°54'7 7.1
2017-Feb-27 18:33N 31°13' E 121°49'5 5.4
2017-Feb-27 17:33N 31°17' E 121°44'4 4.3
2017-Feb-27 16:34N 31°20' E 121°41'3 3.2
2017-Feb-27 15:33N 31°22' E 121°38'5 4.9
2017-Feb-27 14:33N 31°24' E 121°32'3 2.9
2017-Feb-27 13:28N 31°20' E 121°32'0 0.0
2017-Feb-27 10:07N 31°20' E 121°32'1 0.8
2017-Feb-27 08:33N 31°19' E 121°33'0 0.0
2017-Feb-27 07:33N 31°19' E 121°33'0 0.0
2017-Feb-27 04:30N 31°19' E 121°33'6 0.2
2017-Feb-25 17:07N 31°15' E 121°29'  
2017-Feb-23 12:05N 31°30' E 121°23'510.0
2017-Feb-23 11:33N 31°33' E 121°19'1 0.0
2017-Feb-22 14:33N 31°33' E 121°20'85029.3
2017-Feb-21 09:32N 21°19' E 110°25'85563.7
2017-Feb-20 20:07N 31°07' E 121°57'3 6.1
2017-Feb-20 19:33N 31°08' E 121°53'7 7.2
2017-Feb-20 18:33N 31°14' E 121°47'8 7.8
2017-Feb-20 17:33N 31°19' E 121°41'8 7.7
2017-Feb-20 16:33N 31°23' E 121°34'3 2.9
2017-Feb-20 15:33N 31°21' E 121°32'4 3.2
2017-Feb-20 14:08N 31°16' E 121°34'0 0.0
2017-Feb-20 13:32N 31°16' E 121°34'0 0.0
2017-Feb-20 12:22N 31°16' E 121°34'0 0.0
2017-Feb-20 11:28N 31°16' E 121°34'0 0.0
2017-Feb-20 10:28N 31°16' E 121°34'0 0.0
2017-Feb-20 09:17N 31°16' E 121°34'0 0.0
2017-Feb-20 08:28N 31°16' E 121°34'0 0.0
2017-Feb-20 07:31N 31°16' E 121°34'0 0.0
2017-Feb-20 06:28N 31°16' E 121°34'0 0.0
2017-Feb-20 05:19N 31°16' E 121°34'3 3.8
2017-Feb-20 04:33N 31°15' E 121°31'4 4.1
2017-Feb-20 03:33N 31°11' E 121°28'5 4.4
2017-Feb-20 02:30N 31°07' E 121°28'4 0.9
2017-Feb-19 22:05N 31°03' E 121°29'0 0.0
2017-Feb-19 21:29N 31°03' E 121°29'0 0.0
2017-Feb-19 20:29N 31°03' E 121°29'0 0.0
2017-Feb-19 16:19N 31°03' E 121°29'2 1.0
2017-Feb-19 14:27N 31°05' E 121°28'7 6.7
2017-Feb-19 13:27N 31°11' E 121°28'5 5.3
2017-Feb-19 12:33N 31°15' E 121°31'6 5.7
2017-Feb-19 11:33N 31°21' E 121°32'4 3.7
2017-Feb-19 10:33N 31°23' E 121°35'9 9.4
2017-Feb-19 09:33N 31°18' E 121°44'1010.4
2017-Feb-19 08:33N 31°10' E 121°52'8543190.0
2017-Feb-19 08:17N 21°19' E 110°25'8561168.3
2017-Feb-19 07:33N 31°04' E 122°02'  

Dump ship's entire track history